Terminal Aerodrome Forecast
Issued by NWS Quad Cities IA IL

Home | Current Version | Previous Version | Text Only | Print | Product List | Glossary Off
Versions: 1 2 3 4 5 6 7 8 9 10 11 12 13 14 15 16 17 18 19 20 21 22 23 24 25 26 27 28 29 30 31

000
FTUS43 KDVN 241700
TAFDBQ
TAF
KDBQ 241720Z 2418/2518 18012KT 2SM BR OVC002
      TEMPO 2418/2419 4SM BR SCT002
     FM241900 19012KT 6SM BR SCT005
     FM250000 21006KT 1SM BR OVC004
     FM250300 25004KT 1/4SM FG VV002
     FM251500 33008KT P6SM SCT200=

USA.gov is the U.S. government's official web portal to all federal, state and local government web resources and services.